createdAt,value
2023-03-30T00:01:15.289Z,5.98
2023-03-30T00:03:44.954Z,5.99
2023-03-30T00:06:14.948Z,5.98
2023-03-30T00:08:44.873Z,6.01
2023-03-30T00:11:15.722Z,5.98
2023-03-30T00:13:44.735Z,5.98
2023-03-30T00:16:14.532Z,5.95
2023-03-30T00:18:45.221Z,5.92
2023-03-30T00:21:13.653Z,5.95
2023-03-30T00:23:42.347Z,5.99
2023-03-30T00:26:13.572Z,5.99
2023-03-30T00:28:42.945Z,6.00
2023-03-30T00:31:12.003Z,6.00
2023-03-30T00:33:46.908Z,5.99
2023-03-30T00:36:16.682Z,5.97
2023-03-30T00:38:45.893Z,5.94
2023-03-30T00:41:16.353Z,5.95
2023-03-30T00:43:55.820Z,5.94
2023-03-30T00:46:25.931Z,5.91
2023-03-30T00:48:58.206Z,5.88
2023-03-30T00:51:27.829Z,5.91
2023-03-30T00:53:58.111Z,5.90
2023-03-30T00:56:30.816Z,5.88
2023-03-30T00:58:59.502Z,5.85
2023-03-30T01:01:29.735Z,5.84
2023-03-30T01:04:00.527Z,5.85
2023-03-30T01:06:30.493Z,5.84
2023-03-30T01:08:59.357Z,5.81
2023-03-30T01:11:29.177Z,5.76
2023-03-30T01:13:59.731Z,5.72
2023-03-30T01:16:31.669Z,5.68
2023-03-30T01:19:06.489Z,5.60
2023-03-30T01:21:51.116Z,5.53
2023-03-30T01:24:36.840Z,5.57
2023-03-30T01:27:13.389Z,5.54
2023-03-30T01:29:47.920Z,5.56
2023-03-30T01:32:28.218Z,5.59
2023-03-30T01:35:09.581Z,5.58
2023-03-30T01:37:45.834Z,5.55
2023-03-30T01:40:16.881Z,5.57
2023-03-30T01:42:50.957Z,5.62
2023-03-30T01:45:24.008Z,5.61
2023-03-30T01:47:55.393Z,5.58
2023-03-30T01:50:26.835Z,5.62
2023-03-30T01:53:00.236Z,5.61
2023-03-30T01:55:34.998Z,5.61
2023-03-30T01:58:05.524Z,5.61
2023-03-30T02:00:36.531Z,5.60
2023-03-30T02:03:09.004Z,5.62
2023-03-30T02:05:38.460Z,5.62
2023-03-30T02:08:10.160Z,5.57
2023-03-30T02:10:40.582Z,5.52
2023-03-30T02:13:09.679Z,5.50
2023-03-30T02:15:40.020Z,5.54
2023-03-30T02:18:08.686Z,5.53
2023-03-30T02:20:37.829Z,5.49
2023-03-30T02:23:09.425Z,5.49
2023-03-30T02:25:39.671Z,5.52
2023-03-30T02:28:08.914Z,5.51
2023-03-30T02:30:40.134Z,5.53
2023-03-30T02:33:09.514Z,5.52
2023-03-30T02:35:45.899Z,5.52
2023-03-30T02:38:20.730Z,5.52
2023-03-30T02:40:58.405Z,5.56
2023-03-30T02:43:35.216Z,5.58
2023-03-30T02:46:15.555Z,5.56
2023-03-30T02:48:50.515Z,5.57
2023-03-30T02:51:25.821Z,5.56
2023-03-30T02:54:16.304Z,5.53
2023-03-30T02:57:01.207Z,5.49
2023-03-30T02:59:32.380Z,5.53
2023-03-30T03:02:04.668Z,5.52
2023-03-30T03:04:35.897Z,5.45
2023-03-30T03:07:15.917Z,5.50
2023-03-30T03:09:44.577Z,5.53
2023-03-30T03:12:14.554Z,5.48
2023-03-30T03:14:43.472Z,5.44
2023-03-30T03:17:13.867Z,5.42
2023-03-30T03:19:46.898Z,5.42
2023-03-30T03:22:16.590Z,5.37
2023-03-30T03:24:47.073Z,5.38
2023-03-30T03:27:28.123Z,5.42
2023-03-30T03:30:08.517Z,5.41
2023-03-30T03:32:45.240Z,5.43
2023-03-30T03:35:14.582Z,5.47
2023-03-30T03:37:42.984Z,5.47
2023-03-30T03:40:12.676Z,5.46
2023-03-30T03:42:43.510Z,5.46
2023-03-30T03:45:14.724Z,5.46
2023-03-30T03:47:54.623Z,5.41
2023-03-30T03:50:34.678Z,5.38
2023-03-30T03:53:03.102Z,5.39
2023-03-30T03:55:34.998Z,5.37
2023-03-30T03:58:05.762Z,5.36
2023-03-30T04:00:34.555Z,5.33
2023-03-30T04:03:04.717Z,5.32
2023-03-30T04:05:33.401Z,5.33
2023-03-30T04:08:02.926Z,5.26
2023-03-30T04:10:31.464Z,5.24
2023-03-30T04:13:02.994Z,5.26
2023-03-30T04:15:53.221Z,5.24
2023-03-30T04:18:37.163Z,5.20
2023-03-30T04:21:27.001Z,5.17
2023-03-30T04:24:06.463Z,5.14
2023-03-30T04:26:49.948Z,5.08
2023-03-30T04:29:31.160Z,5.00
2023-03-30T04:32:13.066Z,4.97
2023-03-30T04:35:02.105Z,4.94
2023-03-30T04:37:58.393Z,4.94
2023-03-30T04:40:38.153Z,4.95
2023-03-30T04:43:29.525Z,4.95
2023-03-30T04:46:09.110Z,4.98
2023-03-30T04:48:50.145Z,5.03
2023-03-30T04:51:42.826Z,5.09
2023-03-30T04:54:23.246Z,5.13
2023-03-30T04:57:01.727Z,5.16
2023-03-30T04:59:42.494Z,5.14
2023-03-30T05:02:14.904Z,5.19
2023-03-30T05:04:55.967Z,5.26
2023-03-30T05:07:35.539Z,5.33
2023-03-30T05:10:15.123Z,5.35
2023-03-30T05:12:55.356Z,5.40
2023-03-30T05:15:33.834Z,5.46
2023-03-30T05:18:13.500Z,5.46
2023-03-30T05:21:05.287Z,5.53
2023-03-30T05:23:37.000Z,5.54
2023-03-30T05:26:17.370Z,5.57
2023-03-30T05:28:56.057Z,5.66
2023-03-30T05:31:44.995Z,5.69
2023-03-30T05:34:28.388Z,5.71
2023-03-30T05:37:24.743Z,5.76
2023-03-30T05:40:07.609Z,5.78
2023-03-30T05:42:45.238Z,5.84
2023-03-30T05:45:33.976Z,5.86
2023-03-30T05:48:13.317Z,5.88
2023-03-30T05:50:48.770Z,5.93
2023-03-30T05:53:29.786Z,5.95
2023-03-30T05:56:12.797Z,6.01
2023-03-30T05:59:01.662Z,6.05
2023-03-30T06:01:42.581Z,6.12
2023-03-30T06:04:11.324Z,6.14
2023-03-30T06:06:39.954Z,6.11
2023-03-30T06:09:10.431Z,6.19
2023-03-30T06:11:39.357Z,6.24
2023-03-30T06:14:18.435Z,6.28
2023-03-30T06:17:06.608Z,6.36
2023-03-30T06:19:35.634Z,6.41
2023-03-30T06:22:04.074Z,6.40
2023-03-30T06:24:49.800Z,6.43
2023-03-30T06:27:18.716Z,6.48
2023-03-30T06:29:48.045Z,6.50
2023-03-30T06:32:17.052Z,6.55
2023-03-30T06:34:48.734Z,6.59
2023-03-30T06:37:18.401Z,6.59
2023-03-30T06:39:47.008Z,6.57
2023-03-30T06:42:16.851Z,6.54
2023-03-30T06:45:08.974Z,6.59
2023-03-30T06:47:39.324Z,6.67
2023-03-30T06:50:08.271Z,6.75
2023-03-30T06:52:57.131Z,6.78
2023-03-30T06:55:28.687Z,6.74
2023-03-30T06:57:58.807Z,6.78
2023-03-30T07:00:28.232Z,6.81
2023-03-30T07:03:20.192Z,6.88
2023-03-30T07:06:14.536Z,6.93
2023-03-30T07:08:42.950Z,6.96
2023-03-30T07:11:15.230Z,7.03
2023-03-30T07:13:45.186Z,7.11
2023-03-30T07:16:13.849Z,7.16
2023-03-30T07:18:42.632Z,7.26
2023-03-30T07:21:11.689Z,7.32
2023-03-30T07:23:43.772Z,7.43
2023-03-30T07:26:24.044Z,7.58
2023-03-30T07:29:02.048Z,7.72
2023-03-30T07:31:32.102Z,7.77
2023-03-30T07:34:04.458Z,7.85
2023-03-30T07:36:39.161Z,7.77
2023-03-30T07:39:08.453Z,7.70
2023-03-30T07:41:39.487Z,7.69
2023-03-30T07:44:09.478Z,7.63
2023-03-30T07:46:38.034Z,7.65
2023-03-30T07:49:07.063Z,7.65
2023-03-30T07:51:39.109Z,7.71
2023-03-30T07:54:22.770Z,7.83
2023-03-30T07:57:02.264Z,7.79
2023-03-30T07:59:32.321Z,7.75
2023-03-30T08:02:13.578Z,7.81
2023-03-30T08:04:54.485Z,7.88
2023-03-30T08:07:43.199Z,7.96
2023-03-30T08:10:21.440Z,7.99
2023-03-30T08:12:49.950Z,8.04
2023-03-30T08:15:19.988Z,8.05
2023-03-30T08:17:48.642Z,8.09
2023-03-30T08:20:17.110Z,8.09
2023-03-30T08:22:45.818Z,8.11
2023-03-30T08:25:14.197Z,8.15
2023-03-30T08:27:42.476Z,8.26
2023-03-30T08:30:13.371Z,8.44
2023-03-30T08:32:43.211Z,8.58
2023-03-30T08:35:11.741Z,8.72
2023-03-30T08:37:40.352Z,8.80
2023-03-30T08:40:11.106Z,8.87
2023-03-30T08:42:47.867Z,8.99
2023-03-30T08:45:16.845Z,9.11
2023-03-30T08:47:49.855Z,9.19
2023-03-30T08:50:20.031Z,9.34
2023-03-30T08:52:48.754Z,9.44
2023-03-30T08:55:20.041Z,9.48
2023-03-30T08:57:51.355Z,9.57
2023-03-30T09:00:28.087Z,9.66
2023-03-30T09:03:03.582Z,9.77
2023-03-30T09:05:35.388Z,10.00
2023-03-30T09:08:06.516Z,10.17
2023-03-30T09:10:38.637Z,10.25
2023-03-30T09:13:07.647Z,10.46
2023-03-30T09:15:37.809Z,10.74
2023-03-30T09:18:13.599Z,10.77
2023-03-30T09:20:43.643Z,10.70
2023-03-30T09:23:14.934Z,10.53
2023-03-30T09:25:46.192Z,10.43
2023-03-30T09:28:18.569Z,10.35
2023-03-30T09:30:48.898Z,10.37
2023-03-30T09:33:26.601Z,10.55
2023-03-30T09:36:02.206Z,10.78
2023-03-30T09:38:32.398Z,10.94
2023-03-30T09:41:07.778Z,10.99
2023-03-30T09:43:37.638Z,10.98
2023-03-30T09:46:08.084Z,11.05
2023-03-30T09:48:42.777Z,11.13
2023-03-30T09:51:19.151Z,11.21
2023-03-30T09:53:48.384Z,11.20
2023-03-30T09:56:19.890Z,11.19
2023-03-30T09:58:48.258Z,11.09
2023-03-30T10:01:18.631Z,11.18
2023-03-30T10:04:05.330Z,11.23
2023-03-30T10:06:38.387Z,11.30
2023-03-30T10:09:09.852Z,11.34
2023-03-30T10:11:41.494Z,11.47
2023-03-30T10:14:21.588Z,11.53
2023-03-30T10:16:50.043Z,11.67
2023-03-30T10:19:20.128Z,11.74
2023-03-30T10:21:55.368Z,11.84
2023-03-30T10:24:24.660Z,11.82
2023-03-30T10:26:53.912Z,11.77
2023-03-30T10:29:24.547Z,11.87
2023-03-30T10:31:57.926Z,11.93
2023-03-30T10:34:33.120Z,11.84
2023-03-30T10:37:05.992Z,11.72
2023-03-30T10:39:35.465Z,11.70
2023-03-30T10:42:05.008Z,11.69
2023-03-30T10:44:34.370Z,11.71
2023-03-30T10:47:08.654Z,11.61
2023-03-30T10:49:45.605Z,11.59
2023-03-30T10:52:17.902Z,11.61
2023-03-30T10:54:51.545Z,11.75
2023-03-30T10:57:21.714Z,11.81
2023-03-30T10:59:57.394Z,11.89
2023-03-30T11:02:38.834Z,11.95
2023-03-30T11:05:12.666Z,11.96
2023-03-30T11:07:45.669Z,12.05
2023-03-30T11:10:17.588Z,12.10
2023-03-30T11:12:49.168Z,12.13
2023-03-30T11:15:19.505Z,12.15
2023-03-30T11:17:55.577Z,12.22
2023-03-30T11:20:27.551Z,12.31
2023-03-30T11:23:01.044Z,12.45
2023-03-30T11:25:31.392Z,12.53
2023-03-30T11:28:01.712Z,12.64
2023-03-30T11:30:31.457Z,12.78
2023-03-30T11:33:03.705Z,13.02
2023-03-30T11:35:36.322Z,13.33
2023-03-30T11:38:10.597Z,13.42
2023-03-30T11:40:42.326Z,13.60
2023-03-30T11:43:11.768Z,13.36
2023-03-30T11:45:45.061Z,13.31
2023-03-30T11:48:27.270Z,13.27
2023-03-30T11:51:03.790Z,13.23
2023-03-30T11:53:36.134Z,13.16
2023-03-30T11:56:07.976Z,13.14
2023-03-30T11:58:37.515Z,13.04
2023-03-30T12:01:22.176Z,12.92
2023-03-30T12:03:52.807Z,12.83
2023-03-30T12:06:32.455Z,12.68
2023-03-30T12:09:11.901Z,12.62
2023-03-30T12:11:43.510Z,12.51
2023-03-30T12:14:24.765Z,12.38
2023-03-30T12:16:55.758Z,12.24
2023-03-30T12:19:28.043Z,12.20
2023-03-30T12:22:00.338Z,12.14
2023-03-30T12:24:31.052Z,12.10
2023-03-30T12:27:06.113Z,12.14
2023-03-30T12:32:25.698Z,12.09
2023-03-30T12:34:55.795Z,12.07
2023-03-30T12:37:28.696Z,12.10
2023-03-30T12:39:59.214Z,12.10
2023-03-30T12:42:35.602Z,12.06
2023-03-30T12:45:15.109Z,12.06
2023-03-30T12:47:58.761Z,12.13
2023-03-30T12:50:32.317Z,12.18
2023-03-30T12:53:18.539Z,12.17
2023-03-30T12:55:48.830Z,12.25
2023-03-30T12:58:37.842Z,12.30
2023-03-30T13:01:14.202Z,12.33
2023-03-30T13:03:49.665Z,12.37
2023-03-30T13:06:27.355Z,12.39
2023-03-30T13:08:56.595Z,12.37
2023-03-30T13:11:24.862Z,12.41
2023-03-30T13:13:55.202Z,12.45
2023-03-30T13:16:34.482Z,12.55
2023-03-30T13:19:11.806Z,12.68
2023-03-30T13:21:48.025Z,12.85
2023-03-30T13:24:26.226Z,12.95
2023-03-30T13:26:54.730Z,12.95
2023-03-30T13:29:26.626Z,12.93
2023-03-30T13:32:02.454Z,12.88
2023-03-30T13:34:37.784Z,12.78
2023-03-30T13:37:11.253Z,12.76
2023-03-30T13:39:44.447Z,12.78
2023-03-30T13:42:19.535Z,12.79
2023-03-30T13:44:50.989Z,12.74
2023-03-30T13:47:37.877Z,12.64
2023-03-30T13:50:14.299Z,12.62
2023-03-30T13:52:45.712Z,12.62
2023-03-30T13:55:17.770Z,12.62
2023-03-30T13:57:46.301Z,12.59
2023-03-30T14:00:28.568Z,12.57
2023-03-30T14:02:57.074Z,12.52
2023-03-30T14:05:28.763Z,12.40
2023-03-30T14:07:57.899Z,12.32
2023-03-30T14:10:27.176Z,12.22
2023-03-30T14:12:56.960Z,12.16
2023-03-30T14:15:27.594Z,12.11
2023-03-30T14:17:58.507Z,12.08
2023-03-30T14:20:41.636Z,12.03
2023-03-30T14:23:16.039Z,12.00
2023-03-30T14:25:44.549Z,11.94
2023-03-30T14:28:14.754Z,11.91
2023-03-30T14:30:51.433Z,11.89
2023-03-30T14:33:21.710Z,11.83
2023-03-30T14:35:53.087Z,11.78
2023-03-30T14:38:24.268Z,11.75
2023-03-30T14:40:53.540Z,11.72
2023-03-30T14:43:24.738Z,11.64
2023-03-30T14:45:54.100Z,11.58
2023-03-30T14:48:25.032Z,11.51
2023-03-30T14:50:54.925Z,11.51
2023-03-30T14:53:26.615Z,11.50
2023-03-30T14:55:58.334Z,11.47
2023-03-30T14:58:28.348Z,11.42
2023-03-30T15:00:58.992Z,11.41
2023-03-30T15:03:33.937Z,11.33
2023-03-30T15:06:06.415Z,11.24
2023-03-30T15:08:37.948Z,11.17
2023-03-30T15:11:10.335Z,11.15
2023-03-30T15:13:41.112Z,11.06
2023-03-30T15:16:11.630Z,11.01
2023-03-30T15:18:40.132Z,10.95
2023-03-30T15:21:11.268Z,10.90
2023-03-30T15:23:41.040Z,10.81
2023-03-30T15:26:09.715Z,10.76
2023-03-30T15:28:44.850Z,10.67
2023-03-30T15:31:15.399Z,10.63
2023-03-30T15:33:45.810Z,10.63
2023-03-30T15:36:19.362Z,10.61
2023-03-30T15:38:52.432Z,10.62
2023-03-30T15:41:23.722Z,10.59
2023-03-30T15:43:56.662Z,10.55
2023-03-30T15:46:28.283Z,10.53
2023-03-30T15:48:59.582Z,10.53
2023-03-30T15:51:33.244Z,10.52
2023-03-30T15:54:04.060Z,10.51
2023-03-30T15:56:36.227Z,10.48
2023-03-30T15:59:06.112Z,10.45
2023-03-30T16:01:43.493Z,10.41
2023-03-30T16:04:14.414Z,10.39
2023-03-30T16:06:47.125Z,10.36
2023-03-30T16:09:16.120Z,10.31
2023-03-30T16:11:45.638Z,10.27
2023-03-30T16:14:15.574Z,10.25
2023-03-30T16:16:44.423Z,10.23
2023-03-30T16:19:13.405Z,10.24
2023-03-30T16:21:43.287Z,10.26
2023-03-30T16:24:15.646Z,10.23
2023-03-30T16:26:44.242Z,10.20
2023-03-30T16:29:16.722Z,10.20
2023-03-30T16:31:45.267Z,10.22
2023-03-30T16:34:13.642Z,10.22
2023-03-30T16:36:42.392Z,10.18
2023-03-30T16:39:17.801Z,10.14
2023-03-30T16:41:48.515Z,10.13
2023-03-30T16:44:17.003Z,10.11
2023-03-30T16:46:45.936Z,10.10
2023-03-30T16:49:15.535Z,10.08
2023-03-30T16:51:44.431Z,10.10
2023-03-30T16:54:27.292Z,10.10
2023-03-30T16:57:01.300Z,10.08
2023-03-30T16:59:31.108Z,10.05
2023-03-30T17:01:59.473Z,10.03
2023-03-30T17:04:28.432Z,10.01
2023-03-30T17:06:56.874Z,10.00
2023-03-30T17:09:25.681Z,9.94
2023-03-30T17:11:54.108Z,9.94
2023-03-30T17:14:24.494Z,9.91
2023-03-30T17:16:53.145Z,9.89
2023-03-30T17:19:21.821Z,9.89
2023-03-30T17:21:50.441Z,9.87
2023-03-30T17:24:18.848Z,9.84
2023-03-30T17:26:47.392Z,9.81
2023-03-30T17:29:15.665Z,9.77
2023-03-30T17:31:48.274Z,9.75
2023-03-30T17:34:16.841Z,9.72
2023-03-30T17:36:45.915Z,9.70
2023-03-30T17:39:14.647Z,9.71
2023-03-30T17:41:43.041Z,9.70
2023-03-30T17:44:11.497Z,9.69
2023-03-30T17:46:43.382Z,9.63
2023-03-30T17:49:16.354Z,9.63
2023-03-30T17:51:44.872Z,9.56
2023-03-30T17:54:13.241Z,9.52
2023-03-30T17:56:42.023Z,9.49
2023-03-30T17:59:11.488Z,9.48
2023-03-30T18:01:41.357Z,9.47
2023-03-30T18:04:10.064Z,9.44
2023-03-30T18:06:40.969Z,9.43
2023-03-30T18:09:15.285Z,9.43
2023-03-30T18:11:44.191Z,9.42
2023-03-30T18:14:12.535Z,9.41
2023-03-30T18:16:43.656Z,9.38
2023-03-30T18:19:13.057Z,9.36
2023-03-30T18:21:43.343Z,9.34
2023-03-30T18:24:11.828Z,9.33
2023-03-30T18:26:43.207Z,9.32
2023-03-30T18:29:20.466Z,9.31
2023-03-30T18:31:49.806Z,9.31
2023-03-30T18:34:19.865Z,9.31
2023-03-30T18:36:49.767Z,9.33
2023-03-30T18:39:20.139Z,9.33
2023-03-30T18:41:48.851Z,9.34
2023-03-30T18:44:17.304Z,9.33
2023-03-30T18:46:47.254Z,9.35
2023-03-30T18:49:16.974Z,9.34
2023-03-30T18:51:45.472Z,9.34
2023-03-30T18:54:15.455Z,9.32
2023-03-30T18:56:45.809Z,9.31
2023-03-30T18:59:14.209Z,9.31
2023-03-30T19:01:46.278Z,9.32
2023-03-30T19:04:15.268Z,9.32
2023-03-30T19:06:44.770Z,9.26
2023-03-30T19:09:13.245Z,9.27
2023-03-30T19:11:43.096Z,9.22
2023-03-30T19:14:12.654Z,9.22
2023-03-30T19:16:42.155Z,9.25
2023-03-30T19:19:14.940Z,9.23
2023-03-30T19:21:46.285Z,9.27
2023-03-30T19:24:14.846Z,9.29
2023-03-30T19:26:44.695Z,9.28
2023-03-30T19:29:13.816Z,9.27
2023-03-30T19:31:42.236Z,9.28
2023-03-30T19:34:10.740Z,9.27
2023-03-30T19:36:39.206Z,9.27
2023-03-30T19:39:07.748Z,9.29
2023-03-30T19:41:36.382Z,9.27
2023-03-30T19:44:06.363Z,9.25
2023-03-30T19:46:34.803Z,9.27
2023-03-30T19:49:03.515Z,9.26
2023-03-30T19:51:32.516Z,9.29
2023-03-30T19:54:00.939Z,9.28
2023-03-30T19:56:29.331Z,9.25
2023-03-30T19:58:59.200Z,9.22
2023-03-30T20:01:29.016Z,9.24
2023-03-30T20:04:00.044Z,9.27
2023-03-30T20:06:28.817Z,9.25
2023-03-30T20:08:57.566Z,9.28
2023-03-30T20:11:26.389Z,9.31
2023-03-30T20:13:55.623Z,9.29
2023-03-30T20:16:26.140Z,9.27
2023-03-30T20:18:57.686Z,9.30
2023-03-30T20:21:26.932Z,9.30
2023-03-30T20:23:58.811Z,9.31
2023-03-30T20:26:27.888Z,9.32
2023-03-30T20:28:56.720Z,9.31
2023-03-30T20:31:26.319Z,9.28
2023-03-30T20:33:56.149Z,9.29
2023-03-30T20:36:25.599Z,9.27
2023-03-30T20:38:55.706Z,9.29
2023-03-30T20:41:25.230Z,9.30
2023-03-30T20:43:57.430Z,9.31
2023-03-30T20:46:35.650Z,9.30
2023-03-30T20:49:06.004Z,9.29
2023-03-30T20:51:34.442Z,9.25
2023-03-30T20:54:02.812Z,9.24
2023-03-30T20:56:31.282Z,9.24
2023-03-30T20:58:59.935Z,9.25
2023-03-30T21:01:29.641Z,9.18
2023-03-30T21:03:59.064Z,9.15
2023-03-30T21:06:29.974Z,9.15
2023-03-30T21:09:00.554Z,9.17
2023-03-30T21:11:29.690Z,9.17
2023-03-30T21:13:58.415Z,9.17
2023-03-30T21:16:27.157Z,9.19
2023-03-30T21:18:55.806Z,9.17
2023-03-30T21:21:24.488Z,9.17
2023-03-30T21:23:54.295Z,9.19
2023-03-30T21:26:23.713Z,9.20
2023-03-30T21:28:52.077Z,9.19
2023-03-30T21:31:20.788Z,9.20
2023-03-30T21:33:49.252Z,9.17
2023-03-30T21:36:17.853Z,9.17
2023-03-30T21:38:46.543Z,9.17
2023-03-30T21:41:17.375Z,9.17
2023-03-30T21:43:47.615Z,9.16
2023-03-30T21:46:17.763Z,9.18
2023-03-30T21:48:47.221Z,9.15
2023-03-30T21:51:16.610Z,9.14
2023-03-30T21:53:46.702Z,9.10
2023-03-30T21:56:16.722Z,9.05
2023-03-30T21:58:45.092Z,9.04
2023-03-30T22:01:13.625Z,9.01
2023-03-30T22:03:42.644Z,9.01
2023-03-30T22:06:11.929Z,8.95
2023-03-30T22:08:40.613Z,8.88
2023-03-30T22:11:09.959Z,8.94
2023-03-30T22:13:39.744Z,8.95
2023-03-30T22:16:09.989Z,8.95
2023-03-30T22:18:38.583Z,8.94
2023-03-30T22:21:08.171Z,8.91
2023-03-30T22:23:36.990Z,8.79
2023-03-30T22:26:06.811Z,8.80
2023-03-30T22:28:35.541Z,8.82
2023-03-30T22:31:07.453Z,8.74
2023-03-30T22:33:36.412Z,8.71
2023-03-30T22:36:05.393Z,8.75
2023-03-30T22:38:34.132Z,8.70
2023-03-30T22:41:06.438Z,8.69
2023-03-30T22:43:35.982Z,8.70
2023-03-30T22:46:06.928Z,8.70
2023-03-30T22:48:36.188Z,8.70
2023-03-30T22:51:04.862Z,8.71
2023-03-30T22:53:33.980Z,8.71
2023-03-30T22:56:02.907Z,8.68
2023-03-30T22:58:31.461Z,8.63
2023-03-30T23:01:03.030Z,8.56
2023-03-30T23:03:33.154Z,8.47
2023-03-30T23:06:01.922Z,8.37
2023-03-30T23:08:31.267Z,8.37
2023-03-30T23:11:05.314Z,8.33
2023-03-30T23:13:37.993Z,8.24
2023-03-30T23:16:08.145Z,8.19
2023-03-30T23:18:38.720Z,8.13
2023-03-30T23:21:07.638Z,8.11
2023-03-30T23:23:36.732Z,8.05
2023-03-30T23:26:09.694Z,8.03
2023-03-30T23:28:39.848Z,7.95
2023-03-30T23:31:08.726Z,7.85
2023-03-30T23:33:38.644Z,7.78
2023-03-30T23:36:08.106Z,7.76
2023-03-30T23:38:37.617Z,7.70
2023-03-30T23:41:06.659Z,7.65
2023-03-30T23:43:35.092Z,7.50
2023-03-30T23:46:03.923Z,7.43
2023-03-30T23:48:33.023Z,7.35
2023-03-30T23:51:03.028Z,7.23
2023-03-30T23:53:31.875Z,7.16
2023-03-30T23:56:00.396Z,7.15
2023-03-30T23:58:29.773Z,7.05
